Terminal Aerodrome Forecast
Issued by NWS Sterling, VA

Current Version | Previous Version | Graphics & Text | Print | Product List | Glossary On
Versions: 1 2 3 4 5 6 7 8 9 10 11 12 13 14 15 16 17 18 19 20 21 22 23 24
000
FTUS41 KLWX 200849 AAA
TAFIAD
TAF AMD
KIAD 200849Z 2009/2112 19010KT 6SM BR OVC003 WS020/22040KT
      TEMPO 2009/2012 OVC005
     FM201200 20008KT P6SM OVC008
     FM201300 20009KT P6SM SCT012 SCT050 BKN200
      TEMPO 2013/2015 BKN012
     FM201500 20011KT P6SM SCT050 OVC200
     FM210500 20007KT P6SM SCT250=

USA.gov is the U.S. government's official web portal to all federal, state and local government web resources and services.